sensor_id;sensor_type;location;lat;lon;timestamp;temperature;humidity
76862;SHT31;65832;42.802;23.338;2022-12-07T00:01:35;6.58;78.87
76862;SHT31;65832;42.802;23.338;2022-12-07T00:04:05;6.62;78.90
76862;SHT31;65832;42.802;23.338;2022-12-07T00:06:36;6.72;78.50
76862;SHT31;65832;42.802;23.338;2022-12-07T00:09:04;6.64;78.43
76862;SHT31;65832;42.802;23.338;2022-12-07T00:11:30;6.61;78.75
76862;SHT31;65832;42.802;23.338;2022-12-07T00:13:58;6.65;78.25
76862;SHT31;65832;42.802;23.338;2022-12-07T00:16:26;6.72;78.04
76862;SHT31;65832;42.802;23.338;2022-12-07T00:18:52;6.65;78.43
76862;SHT31;65832;42.802;23.338;2022-12-07T00:21:21;6.75;78.23
76862;SHT31;65832;42.802;23.338;2022-12-07T00:23:48;6.72;78.53
76862;SHT31;65832;42.802;23.338;2022-12-07T00:26:18;6.76;78.44
76862;SHT31;65832;42.802;23.338;2022-12-07T00:28:46;6.72;78.56
76862;SHT31;65832;42.802;23.338;2022-12-07T00:31:12;6.76;78.43
76862;SHT31;65832;42.802;23.338;2022-12-07T00:33:39;6.78;78.44
76862;SHT31;65832;42.802;23.338;2022-12-07T00:36:07;6.76;78.52
76862;SHT31;65832;42.802;23.338;2022-12-07T00:38:34;6.68;78.56
76862;SHT31;65832;42.802;23.338;2022-12-07T00:41:09;6.68;78.46
76862;SHT31;65832;42.802;23.338;2022-12-07T00:43:35;6.62;78.93
76862;SHT31;65832;42.802;23.338;2022-12-07T00:46:00;6.72;78.59
76862;SHT31;65832;42.802;23.338;2022-12-07T00:48:26;6.73;78.56
76862;SHT31;65832;42.802;23.338;2022-12-07T00:50:51;6.72;78.30
76862;SHT31;65832;42.802;23.338;2022-12-07T00:53:17;6.72;78.49
76862;SHT31;65832;42.802;23.338;2022-12-07T00:55:44;6.75;78.27
76862;SHT31;65832;42.802;23.338;2022-12-07T00:58:09;6.66;78.67
76862;SHT31;65832;42.802;23.338;2022-12-07T01:00:37;6.61;79.02
76862;SHT31;65832;42.802;23.338;2022-12-07T01:03:08;6.59;79.03
76862;SHT31;65832;42.802;23.338;2022-12-07T01:05:34;6.42;79.21
76862;SHT31;65832;42.802;23.338;2022-12-07T01:07:59;6.41;79.08
76862;SHT31;65832;42.802;23.338;2022-12-07T01:10:25;6.42;79.16
76862;SHT31;65832;42.802;23.338;2022-12-07T01:12:51;6.36;79.57
76862;SHT31;65832;42.802;23.338;2022-12-07T01:15:16;6.45;79.49
76862;SHT31;65832;42.802;23.338;2022-12-07T01:17:41;6.50;79.20
76862;SHT31;65832;42.802;23.338;2022-12-07T01:20:07;6.52;79.15
76862;SHT31;65832;42.802;23.338;2022-12-07T01:24:53;6.48;79.07
76862;SHT31;65832;42.802;23.338;2022-12-07T01:27:19;6.53;79.04
76862;SHT31;65832;42.802;23.338;2022-12-07T01:29:45;6.56;78.92
76862;SHT31;65832;42.802;23.338;2022-12-07T01:32:11;6.56;79.07
76862;SHT31;65832;42.802;23.338;2022-12-07T01:34:36;6.52;79.14
76862;SHT31;65832;42.802;23.338;2022-12-07T01:37:02;6.49;79.18
76862;SHT31;65832;42.802;23.338;2022-12-07T01:39:28;6.52;79.32
76862;SHT31;65832;42.802;23.338;2022-12-07T01:41:55;6.53;79.38
76862;SHT31;65832;42.802;23.338;2022-12-07T01:44:25;6.45;79.32
76862;SHT31;65832;42.802;23.338;2022-12-07T01:46:55;6.35;79.72
76862;SHT31;65832;42.802;23.338;2022-12-07T01:49:35;6.29;79.85
76862;SHT31;65832;42.802;23.338;2022-12-07T01:52:27;6.36;79.47
76862;SHT31;65832;42.802;23.338;2022-12-07T01:54:57;6.38;79.30
76862;SHT31;65832;42.802;23.338;2022-12-07T01:57:24;6.38;79.10
76862;SHT31;65832;42.802;23.338;2022-12-07T01:59:51;6.28;79.41
76862;SHT31;65832;42.802;23.338;2022-12-07T02:03:04;6.17;79.99
76862;SHT31;65832;42.802;23.338;2022-12-07T02:05:30;6.20;79.87
76862;SHT31;65832;42.802;23.338;2022-12-07T02:07:56;6.22;79.57
76862;SHT31;65832;42.802;23.338;2022-12-07T02:10:27;6.21;79.69
76862;SHT31;65832;42.802;23.338;2022-12-07T02:14:35;6.24;79.62
76862;SHT31;65832;42.802;23.338;2022-12-07T02:25:13;6.01;80.16
76862;SHT31;65832;42.802;23.338;2022-12-07T02:27:53;5.87;80.45
76862;SHT31;65832;42.802;23.338;2022-12-07T02:30:22;5.81;80.70
76862;SHT31;65832;42.802;23.338;2022-12-07T02:32:57;5.75;81.04
76862;SHT31;65832;42.802;23.338;2022-12-07T02:40:50;5.66;80.77
76862;SHT31;65832;42.802;23.338;2022-12-07T02:43:24;5.69;80.56
76862;SHT31;65832;42.802;23.338;2022-12-07T02:45:52;5.64;80.76
76862;SHT31;65832;42.802;23.338;2022-12-07T02:48:20;5.38;81.56
76862;SHT31;65832;42.802;23.338;2022-12-07T02:50:53;5.32;82.09
76862;SHT31;65832;42.802;23.338;2022-12-07T02:53:40;5.35;81.97
76862;SHT31;65832;42.802;23.338;2022-12-07T03:03:48;5.35;81.77
76862;SHT31;65832;42.802;23.338;2022-12-07T03:06:21;5.32;82.13
76862;SHT31;65832;42.802;23.338;2022-12-07T03:11:25;5.11;81.81
76862;SHT31;65832;42.802;23.338;2022-12-07T03:14:12;5.05;82.07
76862;SHT31;65832;42.802;23.338;2022-12-07T03:16:43;5.05;82.01
76862;SHT31;65832;42.802;23.338;2022-12-07T03:19:14;5.05;82.11
76862;SHT31;65832;42.802;23.338;2022-12-07T03:21:47;5.07;81.94
76862;SHT31;65832;42.802;23.338;2022-12-07T03:24:21;5.00;82.53
76862;SHT31;65832;42.802;23.338;2022-12-07T03:27:00;5.05;82.30
76862;SHT31;65832;42.802;23.338;2022-12-07T03:29:33;4.96;82.31
76862;SHT31;65832;42.802;23.338;2022-12-07T03:32:09;4.87;82.62
76862;SHT31;65832;42.802;23.338;2022-12-07T03:34:45;4.77;82.69
76862;SHT31;65832;42.802;23.338;2022-12-07T03:37:26;4.64;83.62
76862;SHT31;65832;42.802;23.338;2022-12-07T03:42:40;4.78;82.81
76862;SHT31;65832;42.802;23.338;2022-12-07T03:45:06;4.77;82.72
76862;SHT31;65832;42.802;23.338;2022-12-07T03:48:41;4.74;82.72
76862;SHT31;65832;42.802;23.338;2022-12-07T03:50:42;4.75;82.86
76862;SHT31;65832;42.802;23.338;2022-12-07T03:53:19;4.64;82.80
76862;SHT31;65832;42.802;23.338;2022-12-07T03:55:46;4.62;82.64
76862;SHT31;65832;42.802;23.338;2022-12-07T03:58:17;4.64;82.51
76862;SHT31;65832;42.802;23.338;2022-12-07T04:00:44;4.67;82.61
76862;SHT31;65832;42.802;23.338;2022-12-07T04:03:10;4.79;82.49
76862;SHT31;65832;42.802;23.338;2022-12-07T04:05:36;4.78;82.08
76862;SHT31;65832;42.802;23.338;2022-12-07T04:08:02;4.71;82.50
76862;SHT31;65832;42.802;23.338;2022-12-07T04:10:27;4.72;82.66
76862;SHT31;65832;42.802;23.338;2022-12-07T04:12:53;4.74;83.13
76862;SHT31;65832;42.802;23.338;2022-12-07T04:15:18;4.71;83.33
76862;SHT31;65832;42.802;23.338;2022-12-07T04:17:43;4.74;83.36
76862;SHT31;65832;42.802;23.338;2022-12-07T04:20:09;4.79;83.34
76862;SHT31;65832;42.802;23.338;2022-12-07T04:22:35;4.77;83.71
76862;SHT31;65832;42.802;23.338;2022-12-07T04:25:00;4.78;83.46
76862;SHT31;65832;42.802;23.338;2022-12-07T04:27:26;4.75;83.34
76862;SHT31;65832;42.802;23.338;2022-12-07T04:29:51;4.69;83.29
76862;SHT31;65832;42.802;23.338;2022-12-07T04:32:17;4.72;83.33
76862;SHT31;65832;42.802;23.338;2022-12-07T04:34:42;4.75;83.37
76862;SHT31;65832;42.802;23.338;2022-12-07T04:37:08;4.79;83.04
76862;SHT31;65832;42.802;23.338;2022-12-07T04:39:33;4.84;82.37
76862;SHT31;65832;42.802;23.338;2022-12-07T04:41:59;4.71;82.72
76862;SHT31;65832;42.802;23.338;2022-12-07T04:44:27;4.58;83.51
76862;SHT31;65832;42.802;23.338;2022-12-07T04:46:53;4.61;83.59
76862;SHT31;65832;42.802;23.338;2022-12-07T04:49:19;4.41;83.15
76862;SHT31;65832;42.802;23.338;2022-12-07T04:51:45;4.29;83.72
76862;SHT31;65832;42.802;23.338;2022-12-07T04:54:12;3.93;85.32
76862;SHT31;65832;42.802;23.338;2022-12-07T04:56:38;4.16;84.69
76862;SHT31;65832;42.802;23.338;2022-12-07T04:59:03;4.09;84.47
76862;SHT31;65832;42.802;23.338;2022-12-07T05:01:29;3.89;84.58
76862;SHT31;65832;42.802;23.338;2022-12-07T05:03:54;3.86;84.50
76862;SHT31;65832;42.802;23.338;2022-12-07T05:06:20;3.99;85.04
76862;SHT31;65832;42.802;23.338;2022-12-07T05:08:46;3.87;84.97
76862;SHT31;65832;42.802;23.338;2022-12-07T05:11:11;3.85;85.70
76862;SHT31;65832;42.802;23.338;2022-12-07T05:14:00;3.69;85.75
76862;SHT31;65832;42.802;23.338;2022-12-07T05:16:26;3.73;85.96
76862;SHT31;65832;42.802;23.338;2022-12-07T05:18:52;3.62;86.78
76862;SHT31;65832;42.802;23.338;2022-12-07T05:21:18;3.35;87.69
76862;SHT31;65832;42.802;23.338;2022-12-07T05:23:43;3.59;87.70
76862;SHT31;65832;42.802;23.338;2022-12-07T05:26:09;3.62;87.02
76862;SHT31;65832;42.802;23.338;2022-12-07T05:28:35;3.55;87.28
76862;SHT31;65832;42.802;23.338;2022-12-07T05:31:00;3.52;87.33
76862;SHT31;65832;42.802;23.338;2022-12-07T05:33:26;3.55;86.42
76862;SHT31;65832;42.802;23.338;2022-12-07T05:35:51;3.54;86.59
76862;SHT31;65832;42.802;23.338;2022-12-07T05:38:16;3.28;87.31
76862;SHT31;65832;42.802;23.338;2022-12-07T05:40:42;3.39;87.03
76862;SHT31;65832;42.802;23.338;2022-12-07T05:43:07;3.54;86.89
76862;SHT31;65832;42.802;23.338;2022-12-07T05:45:33;3.61;86.20
76862;SHT31;65832;42.802;23.338;2022-12-07T05:47:58;3.48;86.21
76862;SHT31;65832;42.802;23.338;2022-12-07T05:50:24;3.52;86.60
76862;SHT31;65832;42.802;23.338;2022-12-07T05:52:49;3.41;86.89
76862;SHT31;65832;42.802;23.338;2022-12-07T05:55:15;3.32;86.84
76862;SHT31;65832;42.802;23.338;2022-12-07T05:57:40;3.45;86.69
76862;SHT31;65832;42.802;23.338;2022-12-07T06:00:26;3.34;86.84
76862;SHT31;65832;42.802;23.338;2022-12-07T06:02:51;3.48;86.87
76862;SHT31;65832;42.802;23.338;2022-12-07T06:05:16;3.61;86.87
76862;SHT31;65832;42.802;23.338;2022-12-07T06:07:42;3.41;87.22
76862;SHT31;65832;42.802;23.338;2022-12-07T06:10:07;3.61;86.98
76862;SHT31;65832;42.802;23.338;2022-12-07T06:12:33;3.54;87.15
76862;SHT31;65832;42.802;23.338;2022-12-07T06:14:59;3.55;87.39
76862;SHT31;65832;42.802;23.338;2022-12-07T06:17:24;3.61;87.46
76862;SHT31;65832;42.802;23.338;2022-12-07T06:19:50;3.69;87.25
76862;SHT31;65832;42.802;23.338;2022-12-07T06:22:16;3.80;87.23
76862;SHT31;65832;42.802;23.338;2022-12-07T06:24:42;3.90;86.10
76862;SHT31;65832;42.802;23.338;2022-12-07T06:27:08;3.93;86.38
76862;SHT31;65832;42.802;23.338;2022-12-07T06:29:33;3.96;86.34
76862;SHT31;65832;42.802;23.338;2022-12-07T06:31:58;4.03;85.97
76862;SHT31;65832;42.802;23.338;2022-12-07T06:34:25;4.07;85.83
76862;SHT31;65832;42.802;23.338;2022-12-07T06:36:51;4.13;86.26
76862;SHT31;65832;42.802;23.338;2022-12-07T06:39:20;4.06;86.62
76862;SHT31;65832;42.802;23.338;2022-12-07T06:41:46;4.10;86.76
76862;SHT31;65832;42.802;23.338;2022-12-07T06:44:12;4.23;85.97
76862;SHT31;65832;42.802;23.338;2022-12-07T06:46:38;4.34;85.77
76862;SHT31;65832;42.802;23.338;2022-12-07T06:49:04;4.38;85.54
76862;SHT31;65832;42.802;23.338;2022-12-07T06:51:30;4.36;85.50
76862;SHT31;65832;42.802;23.338;2022-12-07T06:53:56;4.41;85.66
76862;SHT31;65832;42.802;23.338;2022-12-07T06:56:21;4.36;86.03
76862;SHT31;65832;42.802;23.338;2022-12-07T06:58:48;4.51;85.61
76862;SHT31;65832;42.802;23.338;2022-12-07T07:01:16;4.57;85.64
76862;SHT31;65832;42.802;23.338;2022-12-07T07:03:42;4.55;85.54
76862;SHT31;65832;42.802;23.338;2022-12-07T07:06:08;4.67;85.02
76862;SHT31;65832;42.802;23.338;2022-12-07T07:08:34;4.74;84.17
76862;SHT31;65832;42.802;23.338;2022-12-07T07:11:00;4.78;84.10
76862;SHT31;65832;42.802;23.338;2022-12-07T07:13:26;4.64;85.02
76862;SHT31;65832;42.802;23.338;2022-12-07T07:15:52;4.60;84.70
76862;SHT31;65832;42.802;23.338;2022-12-07T07:18:18;4.60;84.75
76862;SHT31;65832;42.802;23.338;2022-12-07T07:20:43;4.57;84.91
76862;SHT31;65832;42.802;23.338;2022-12-07T07:23:09;4.58;84.21
76862;SHT31;65832;42.802;23.338;2022-12-07T07:25:34;4.62;84.52
76862;SHT31;65832;42.802;23.338;2022-12-07T07:28:00;4.50;84.48
76862;SHT31;65832;42.802;23.338;2022-12-07T07:30:26;4.44;85.41
76862;SHT31;65832;42.802;23.338;2022-12-07T07:32:59;4.65;84.59
76862;SHT31;65832;42.802;23.338;2022-12-07T07:35:25;4.54;84.94
76862;SHT31;65832;42.802;23.338;2022-12-07T07:37:51;4.57;84.76
76862;SHT31;65832;42.802;23.338;2022-12-07T07:40:16;4.62;84.78
76862;SHT31;65832;42.802;23.338;2022-12-07T07:42:41;4.62;86.68
76862;SHT31;65832;42.802;23.338;2022-12-07T07:45:08;4.96;89.10
76862;SHT31;65832;42.802;23.338;2022-12-07T07:47:33;4.91;85.98
76862;SHT31;65832;42.802;23.338;2022-12-07T07:49:59;5.11;85.34
76862;SHT31;65832;42.802;23.338;2022-12-07T07:52:25;5.08;85.46
76862;SHT31;65832;42.802;23.338;2022-12-07T07:54:50;5.12;85.90
76862;SHT31;65832;42.802;23.338;2022-12-07T07:57:17;5.16;85.42
76862;SHT31;65832;42.802;23.338;2022-12-07T07:59:42;5.26;85.57
76862;SHT31;65832;42.802;23.338;2022-12-07T08:02:18;5.28;85.64
76862;SHT31;65832;42.802;23.338;2022-12-07T08:04:44;5.44;84.90
76862;SHT31;65832;42.802;23.338;2022-12-07T08:07:11;5.54;83.95
76862;SHT31;65832;42.802;23.338;2022-12-07T08:09:37;5.33;83.68
76862;SHT31;65832;42.802;23.338;2022-12-07T08:12:02;5.23;84.37
76862;SHT31;65832;42.802;23.338;2022-12-07T08:14:28;5.08;85.91
76862;SHT31;65832;42.802;23.338;2022-12-07T08:16:54;5.15;84.55
76862;SHT31;65832;42.802;23.338;2022-12-07T08:19:19;5.42;84.80
76862;SHT31;65832;42.802;23.338;2022-12-07T08:21:45;5.43;84.53
76862;SHT31;65832;42.802;23.338;2022-12-07T08:24:10;5.43;84.94
76862;SHT31;65832;42.802;23.338;2022-12-07T08:26:35;5.56;83.86
76862;SHT31;65832;42.802;23.338;2022-12-07T08:29:01;5.63;84.01
76862;SHT31;65832;42.802;23.338;2022-12-07T08:31:26;5.70;83.36
76862;SHT31;65832;42.802;23.338;2022-12-07T08:33:53;5.74;83.51
76862;SHT31;65832;42.802;23.338;2022-12-07T08:36:18;5.86;82.87
76862;SHT31;65832;42.802;23.338;2022-12-07T08:38:44;5.77;83.34
76862;SHT31;65832;42.802;23.338;2022-12-07T08:41:10;5.80;83.00
76862;SHT31;65832;42.802;23.338;2022-12-07T08:43:36;5.74;83.81
76862;SHT31;65832;42.802;23.338;2022-12-07T08:48:56;6.00;81.78
76862;SHT31;65832;42.802;23.338;2022-12-07T08:51:22;6.00;82.56
76862;SHT31;65832;42.802;23.338;2022-12-07T08:53:49;6.32;81.56
76862;SHT31;65832;42.802;23.338;2022-12-07T08:56:15;6.24;81.19
76862;SHT31;65832;42.802;23.338;2022-12-07T08:58:41;6.22;81.59
76862;SHT31;65832;42.802;23.338;2022-12-07T09:01:07;6.29;81.00
76862;SHT31;65832;42.802;23.338;2022-12-07T09:03:32;6.31;81.05
76862;SHT31;65832;42.802;23.338;2022-12-07T09:05:58;6.25;81.05
76862;SHT31;65832;42.802;23.338;2022-12-07T09:08:28;6.04;82.07
76862;SHT31;65832;42.802;23.338;2022-12-07T09:10:55;6.25;80.58
76862;SHT31;65832;42.802;23.338;2022-12-07T09:13:20;6.34;81.10
76862;SHT31;65832;42.802;23.338;2022-12-07T09:15:45;6.20;81.99
76862;SHT31;65832;42.802;23.338;2022-12-07T09:18:11;6.28;81.17
76862;SHT31;65832;42.802;23.338;2022-12-07T09:20:36;6.52;80.53
76862;SHT31;65832;42.802;23.338;2022-12-07T09:23:02;6.55;80.53
76862;SHT31;65832;42.802;23.338;2022-12-07T09:25:27;6.36;81.38
76862;SHT31;65832;42.802;23.338;2022-12-07T09:27:57;6.44;80.63
76862;SHT31;65832;42.802;23.338;2022-12-07T09:30:22;6.49;80.60
76862;SHT31;65832;42.802;23.338;2022-12-07T09:32:48;6.72;80.10
76862;SHT31;65832;42.802;23.338;2022-12-07T09:35:13;6.90;79.86
76862;SHT31;65832;42.802;23.338;2022-12-07T09:37:39;6.72;79.45
76862;SHT31;65832;42.802;23.338;2022-12-07T09:40:05;6.89;79.21
76862;SHT31;65832;42.802;23.338;2022-12-07T09:42:38;7.07;78.59
76862;SHT31;65832;42.802;23.338;2022-12-07T09:45:06;7.14;78.73
76862;SHT31;65832;42.802;23.338;2022-12-07T09:47:33;7.33;78.51
76862;SHT31;65832;42.802;23.338;2022-12-07T09:50:11;6.96;78.56
76862;SHT31;65832;42.802;23.338;2022-12-07T09:52:38;6.86;79.24
76862;SHT31;65832;42.802;23.338;2022-12-07T09:55:07;6.90;79.30
76862;SHT31;65832;42.802;23.338;2022-12-07T09:57:34;7.10;78.89
76862;SHT31;65832;42.802;23.338;2022-12-07T10:00:09;7.11;78.08
76862;SHT31;65832;42.802;23.338;2022-12-07T10:02:41;7.35;77.86
76862;SHT31;65832;42.802;23.338;2022-12-07T10:05:12;7.82;79.51
76862;SHT31;65832;42.802;23.338;2022-12-07T10:07:38;7.84;77.06
76862;SHT31;65832;42.802;23.338;2022-12-07T10:10:06;7.60;76.51
76862;SHT31;65832;42.802;23.338;2022-12-07T10:12:53;7.79;76.46
76862;SHT31;65832;42.802;23.338;2022-12-07T10:15:19;7.67;75.33
76862;SHT31;65832;42.802;23.338;2022-12-07T10:17:50;7.65;76.15
76862;SHT31;65832;42.802;23.338;2022-12-07T10:20:24;7.78;75.24
76862;SHT31;65832;42.802;23.338;2022-12-07T10:22:57;7.91;75.43
76862;SHT31;65832;42.802;23.338;2022-12-07T10:25:26;7.95;75.26
76862;SHT31;65832;42.802;23.338;2022-12-07T10:28:21;7.98;75.13
76862;SHT31;65832;42.802;23.338;2022-12-07T10:30:59;7.89;75.48
76862;SHT31;65832;42.802;23.338;2022-12-07T10:35:55;8.12;73.93
76862;SHT31;65832;42.802;23.338;2022-12-07T10:38:21;8.02;74.44
76862;SHT31;65832;42.802;23.338;2022-12-07T10:40:47;8.21;74.09
76862;SHT31;65832;42.802;23.338;2022-12-07T11:07:14;8.66;73.18
76862;SHT31;65832;42.802;23.338;2022-12-07T11:15:37;8.84;73.00
76862;SHT31;65832;42.802;23.338;2022-12-07T11:18:17;8.93;71.84
76862;SHT31;65832;42.802;23.338;2022-12-07T11:31:41;8.91;72.57
76862;SHT31;65832;42.802;23.338;2022-12-07T11:34:28;8.91;72.62
76862;SHT31;65832;42.802;23.338;2022-12-07T11:37:01;9.03;73.06
76862;SHT31;65832;42.802;23.338;2022-12-07T11:39:41;9.35;72.14
76862;SHT31;65832;42.802;23.338;2022-12-07T11:42:22;9.38;72.00
76862;SHT31;65832;42.802;23.338;2022-12-07T11:44:55;9.56;71.49
76862;SHT31;65832;42.802;23.338;2022-12-07T11:50:37;9.83;70.10
76862;SHT31;65832;42.802;23.338;2022-12-07T11:55:52;9.66;70.41
76862;SHT31;65832;42.802;23.338;2022-12-07T12:00:50;9.66;70.53
76862;SHT31;65832;42.802;23.338;2022-12-07T12:03:24;9.56;70.76
76862;SHT31;65832;42.802;23.338;2022-12-07T12:05:56;9.69;70.41
76862;SHT31;65832;42.802;23.338;2022-12-07T12:08:29;9.71;70.68
76862;SHT31;65832;42.802;23.338;2022-12-07T12:16:09;9.82;70.86
76862;SHT31;65832;42.802;23.338;2022-12-07T12:21:17;9.95;70.05
76862;SHT31;65832;42.802;23.338;2022-12-07T12:24:04;9.83;70.67
76862;SHT31;65832;42.802;23.338;2022-12-07T12:26:36;9.87;70.66
76862;SHT31;65832;42.802;23.338;2022-12-07T12:29:05;9.93;69.94
76862;SHT31;65832;42.802;23.338;2022-12-07T12:31:37;9.97;69.81
76862;SHT31;65832;42.802;23.338;2022-12-07T12:42:56;9.97;69.80
76862;SHT31;65832;42.802;23.338;2022-12-07T12:55:18;10.17;68.90
76862;SHT31;65832;42.802;23.338;2022-12-07T12:57:46;10.24;69.02
76862;SHT31;65832;42.802;23.338;2022-12-07T13:02:50;10.40;68.24
76862;SHT31;65832;42.802;23.338;2022-12-07T13:05:20;10.47;67.90
76862;SHT31;65832;42.802;23.338;2022-12-07T13:13:03;10.51;68.24
76862;SHT31;65832;42.802;23.338;2022-12-07T13:18:03;10.56;68.75
76862;SHT31;65832;42.802;23.338;2022-12-07T13:26:36;10.46;68.25
76862;SHT31;65832;42.802;23.338;2022-12-07T13:31:52;10.53;68.25
76862;SHT31;65832;42.802;23.338;2022-12-07T13:37:02;10.51;69.13
76862;SHT31;65832;42.802;23.338;2022-12-07T13:39:33;10.70;67.97
76862;SHT31;65832;42.802;23.338;2022-12-07T13:42:07;10.63;68.17
76862;SHT31;65832;42.802;23.338;2022-12-07T13:44:40;10.71;68.00
76862;SHT31;65832;42.802;23.338;2022-12-07T13:47:17;10.65;68.56
76862;SHT31;65832;42.802;23.338;2022-12-07T13:49:53;10.74;68.41
76862;SHT31;65832;42.802;23.338;2022-12-07T13:52:30;10.61;68.62
76862;SHT31;65832;42.802;23.338;2022-12-07T13:55:00;10.59;68.30
76862;SHT31;65832;42.802;23.338;2022-12-07T13:57:28;10.65;68.44
76862;SHT31;65832;42.802;23.338;2022-12-07T13:59:56;10.41;69.73
76862;SHT31;65832;42.802;23.338;2022-12-07T14:02:29;10.47;69.76
76862;SHT31;65832;42.802;23.338;2022-12-07T14:05:14;10.64;69.08
76862;SHT31;65832;42.802;23.338;2022-12-07T14:13:59;10.29;69.78
76862;SHT31;65832;42.802;23.338;2022-12-07T14:18:57;10.14;71.00
76862;SHT31;65832;42.802;23.338;2022-12-07T14:21:25;10.12;71.02
76862;SHT31;65832;42.802;23.338;2022-12-07T14:26:37;9.81;72.10
76862;SHT31;65832;42.802;23.338;2022-12-07T14:29:40;9.86;71.67
76862;SHT31;65832;42.802;23.338;2022-12-07T14:32:26;9.62;72.62
76862;SHT31;65832;42.802;23.338;2022-12-07T14:37:21;9.59;72.83
76862;SHT31;65832;42.802;23.338;2022-12-07T14:39:47;9.62;72.51
76862;SHT31;65832;42.802;23.338;2022-12-07T14:42:12;9.54;72.81
76862;SHT31;65832;42.802;23.338;2022-12-07T14:44:38;9.41;73.44
76862;SHT31;65832;42.802;23.338;2022-12-07T14:47:03;9.31;73.59
76862;SHT31;65832;42.802;23.338;2022-12-07T14:49:28;9.10;74.09
76862;SHT31;65832;42.802;23.338;2022-12-07T14:51:54;8.93;74.84
76862;SHT31;65832;42.802;23.338;2022-12-07T14:54:21;9.08;74.52
76862;SHT31;65832;42.802;23.338;2022-12-07T14:56:50;9.10;74.18
76862;SHT31;65832;42.802;23.338;2022-12-07T14:59:16;9.10;74.38
76862;SHT31;65832;42.802;23.338;2022-12-07T15:01:42;8.94;74.48
76862;SHT31;65832;42.802;23.338;2022-12-07T15:04:08;8.77;75.10
76862;SHT31;65832;42.802;23.338;2022-12-07T15:06:34;8.40;76.35
76862;SHT31;65832;42.802;23.338;2022-12-07T15:09:00;8.48;76.08
76862;SHT31;65832;42.802;23.338;2022-12-07T15:11:25;8.46;76.21
76862;SHT31;65832;42.802;23.338;2022-12-07T15:13:50;8.43;76.43
76862;SHT31;65832;42.802;23.338;2022-12-07T15:16:43;8.21;77.26
76862;SHT31;65832;42.802;23.338;2022-12-07T15:19:23;8.32;77.08
76862;SHT31;65832;42.802;23.338;2022-12-07T15:21:51;8.15;76.95
76862;SHT31;65832;42.802;23.338;2022-12-07T15:24:16;8.08;77.10
76862;SHT31;65832;42.802;23.338;2022-12-07T15:26:41;7.95;77.93
76862;SHT31;65832;42.802;23.338;2022-12-07T15:29:07;8.13;77.35
76862;SHT31;65832;42.802;23.338;2022-12-07T15:31:33;8.18;77.37
76862;SHT31;65832;42.802;23.338;2022-12-07T15:33:59;8.29;76.83
76862;SHT31;65832;42.802;23.338;2022-12-07T15:36:27;8.35;76.60
76862;SHT31;65832;42.802;23.338;2022-12-07T15:38:53;8.21;77.02
76862;SHT31;65832;42.802;23.338;2022-12-07T15:41:20;8.29;76.87
76862;SHT31;65832;42.802;23.338;2022-12-07T15:43:45;8.19;77.42
76862;SHT31;65832;42.802;23.338;2022-12-07T15:46:35;8.19;76.41
76862;SHT31;65832;42.802;23.338;2022-12-07T15:49:01;8.05;76.62
76862;SHT31;65832;42.802;23.338;2022-12-07T15:51:27;7.95;77.51
76862;SHT31;65832;42.802;23.338;2022-12-07T15:53:53;7.91;77.47
76862;SHT31;65832;42.802;23.338;2022-12-07T15:56:19;7.91;77.54
76862;SHT31;65832;42.802;23.338;2022-12-07T15:58:44;7.82;78.07
76862;SHT31;65832;42.802;23.338;2022-12-07T16:01:14;7.65;78.66
76862;SHT31;65832;42.802;23.338;2022-12-07T16:03:41;7.54;79.54
76862;SHT31;65832;42.802;23.338;2022-12-07T16:06:06;7.61;79.17
76862;SHT31;65832;42.802;23.338;2022-12-07T16:08:32;7.14;79.01
76862;SHT31;65832;42.802;23.338;2022-12-07T16:10:57;7.01;79.80
76862;SHT31;65832;42.802;23.338;2022-12-07T16:13:23;6.99;79.78
76862;SHT31;65832;42.802;23.338;2022-12-07T16:15:48;7.06;79.76
76862;SHT31;65832;42.802;23.338;2022-12-07T16:18:13;7.09;79.85
76862;SHT31;65832;42.802;23.338;2022-12-07T16:20:39;7.07;80.18
76862;SHT31;65832;42.802;23.338;2022-12-07T16:23:05;7.27;79.41
76862;SHT31;65832;42.802;23.338;2022-12-07T16:25:31;7.40;79.09
76862;SHT31;65832;42.802;23.338;2022-12-07T16:27:56;7.50;78.47
76862;SHT31;65832;42.802;23.338;2022-12-07T16:30:22;7.33;78.79
76862;SHT31;65832;42.802;23.338;2022-12-07T16:32:47;6.97;78.97
76862;SHT31;65832;42.802;23.338;2022-12-07T16:35:12;7.03;79.33
76862;SHT31;65832;42.802;23.338;2022-12-07T16:37:38;7.26;78.47
76862;SHT31;65832;42.802;23.338;2022-12-07T16:40:04;7.43;77.88
76862;SHT31;65832;42.802;23.338;2022-12-07T16:42:34;7.58;77.31
76862;SHT31;65832;42.802;23.338;2022-12-07T16:45:00;7.61;77.37
76862;SHT31;65832;42.802;23.338;2022-12-07T16:47:26;7.74;76.66
76862;SHT31;65832;42.802;23.338;2022-12-07T16:49:51;7.44;77.36
76862;SHT31;65832;42.802;23.338;2022-12-07T16:52:18;7.47;77.00
76862;SHT31;65832;42.802;23.338;2022-12-07T16:54:44;7.37;77.63
76862;SHT31;65832;42.802;23.338;2022-12-07T16:57:09;7.37;77.43
76862;SHT31;65832;42.802;23.338;2022-12-07T16:59:34;7.34;77.57
76862;SHT31;65832;42.802;23.338;2022-12-07T17:02:00;7.27;77.49
76862;SHT31;65832;42.802;23.338;2022-12-07T17:04:25;7.51;76.66
76862;SHT31;65832;42.802;23.338;2022-12-07T17:06:51;7.43;77.15
76862;SHT31;65832;42.802;23.338;2022-12-07T17:09:16;7.47;76.45
76862;SHT31;65832;42.802;23.338;2022-12-07T17:11:44;7.58;75.96
76862;SHT31;65832;42.802;23.338;2022-12-07T17:14:10;7.61;75.86
76862;SHT31;65832;42.802;23.338;2022-12-07T17:16:54;7.51;76.01
76862;SHT31;65832;42.802;23.338;2022-12-07T17:19:19;7.37;76.03
76862;SHT31;65832;42.802;23.338;2022-12-07T17:21:45;7.11;77.10
76862;SHT31;65832;42.802;23.338;2022-12-07T17:24:13;7.10;77.39
76862;SHT31;65832;42.802;23.338;2022-12-07T17:26:40;7.31;76.47
76862;SHT31;65832;42.802;23.338;2022-12-07T17:29:06;7.67;75.27
76862;SHT31;65832;42.802;23.338;2022-12-07T17:31:34;7.71;74.80
76862;SHT31;65832;42.802;23.338;2022-12-07T17:34:00;7.61;75.06
76862;SHT31;65832;42.802;23.338;2022-12-07T17:36:28;7.67;74.99
76862;SHT31;65832;42.802;23.338;2022-12-07T17:38:53;7.48;75.65
76862;SHT31;65832;42.802;23.338;2022-12-07T17:41:22;7.40;75.85
76862;SHT31;65832;42.802;23.338;2022-12-07T17:44:11;7.47;75.79
76862;SHT31;65832;42.802;23.338;2022-12-07T17:46:38;7.38;76.02
76862;SHT31;65832;42.802;23.338;2022-12-07T17:49:04;7.40;75.93
76862;SHT31;65832;42.802;23.338;2022-12-07T17:51:30;7.27;76.23
76862;SHT31;65832;42.802;23.338;2022-12-07T17:54:14;7.31;76.30
76862;SHT31;65832;42.802;23.338;2022-12-07T17:56:40;7.34;76.08
76862;SHT31;65832;42.802;23.338;2022-12-07T17:59:06;7.09;76.87
76862;SHT31;65832;42.802;23.338;2022-12-07T18:01:32;7.17;76.78
76862;SHT31;65832;42.802;23.338;2022-12-07T18:03:57;7.19;76.80
76862;SHT31;65832;42.802;23.338;2022-12-07T18:06:23;7.13;76.87